createdAt,value
2023-04-13T00:02:13.761Z,1.40
2023-04-13T00:05:19.974Z,1.26
2023-04-13T00:08:26.343Z,1.32
2023-04-13T00:11:33.836Z,1.70
2023-04-13T00:14:40.254Z,1.13
2023-04-13T00:17:47.565Z,2.02
2023-04-13T00:20:53.850Z,1.48
2023-04-13T00:24:00.263Z,1.42
2023-04-13T00:27:08.830Z,2.30
2023-04-13T00:30:16.438Z,2.10
2023-04-13T00:33:22.714Z,2.19
2023-04-13T00:36:28.804Z,2.07
2023-04-13T00:39:35.201Z,2.10
2023-04-13T00:42:44.737Z,2.10
2023-04-13T00:45:51.268Z,2.12
2023-04-13T00:48:58.376Z,2.26
2023-04-13T00:52:05.057Z,2.38
2023-04-13T00:55:11.670Z,2.06
2023-04-13T00:58:19.363Z,2.21
2023-04-13T01:01:26.212Z,2.12
2023-04-13T01:04:33.641Z,1.63
2023-04-13T01:07:49.465Z,1.85
2023-04-13T01:11:01.850Z,1.59
2023-04-13T01:14:14.454Z,0.53
2023-04-13T01:17:22.907Z,0.28
2023-04-13T01:20:31.881Z,0.85
2023-04-13T01:23:51.375Z,0.81
2023-04-13T01:27:05.682Z,0.43
2023-04-13T01:30:16.963Z,1.25
2023-04-13T01:33:25.525Z,1.27
2023-04-13T01:36:33.791Z,1.34
2023-04-13T01:39:40.047Z,1.56
2023-04-13T01:42:47.407Z,1.46
2023-04-13T01:46:01.767Z,0.30
2023-04-13T01:49:11.102Z,0.41
2023-04-13T01:52:17.852Z,1.12
2023-04-13T01:55:24.825Z,1.54
2023-04-13T01:58:33.694Z,1.29
2023-04-13T02:01:43.246Z,1.08
2023-04-13T02:04:49.582Z,1.09
2023-04-13T02:07:55.850Z,1.35
2023-04-13T02:11:03.774Z,1.20
2023-04-13T02:14:09.763Z,0.63
2023-04-13T02:17:17.704Z,0.25
2023-04-13T02:20:23.871Z,0.50
2023-04-13T02:23:29.890Z,0.57
2023-04-13T02:26:37.352Z,0.93
2023-04-13T02:29:43.732Z,1.02
2023-04-13T02:32:51.379Z,0.38
2023-04-13T02:35:58.603Z,0.10
2023-04-13T02:39:05.066Z,0.01
2023-04-13T02:42:11.952Z,0.15
2023-04-13T02:45:18.473Z,0.12
2023-04-13T02:48:25.858Z,-0.50
2023-04-13T02:51:32.382Z,0.38
2023-04-13T02:54:38.401Z,0.00
2023-04-13T02:57:44.906Z,-0.66
2023-04-13T03:00:51.538Z,-1.07
2023-04-13T03:03:59.371Z,-0.58
2023-04-13T03:07:10.175Z,0.40
2023-04-13T03:10:16.540Z,-0.05
2023-04-13T03:13:23.048Z,-0.19
2023-04-13T03:16:29.252Z,0.12
2023-04-13T03:19:37.264Z,0.72
2023-04-13T03:22:45.281Z,0.54
2023-04-13T03:25:51.839Z,0.39
2023-04-13T03:28:58.193Z,0.70
2023-04-13T03:32:04.503Z,0.66
2023-04-13T03:35:12.099Z,0.77
2023-04-13T03:38:18.271Z,-1.02
2023-04-13T03:41:24.446Z,-0.78
2023-04-13T03:44:30.361Z,-0.13
2023-04-13T03:47:36.323Z,-1.03
2023-04-13T03:50:43.687Z,-1.11
2023-04-13T03:53:49.652Z,-0.88
2023-04-13T03:56:57.164Z,-1.13
2023-04-13T04:00:03.894Z,-0.88
2023-04-13T04:03:10.532Z,-0.16
2023-04-13T04:06:18.032Z,-0.17
2023-04-13T04:09:24.914Z,0.48
2023-04-13T04:12:31.387Z,0.38
2023-04-13T04:15:37.962Z,0.29
2023-04-13T04:18:44.603Z,0.69
2023-04-13T04:21:53.192Z,-0.17
2023-04-13T04:25:00.247Z,0.23
2023-04-13T04:28:06.618Z,0.15
2023-04-13T04:31:13.244Z,0.58
2023-04-13T04:34:19.465Z,0.71
2023-04-13T04:37:27.147Z,0.50
2023-04-13T04:40:35.937Z,1.40
2023-04-13T04:43:46.414Z,0.68
2023-04-13T04:46:54.327Z,1.27
2023-04-13T04:50:01.934Z,1.52
2023-04-13T04:53:09.800Z,2.08
2023-04-13T04:56:16.094Z,1.87
2023-04-13T04:59:22.677Z,2.02
2023-04-13T05:02:29.240Z,1.43
2023-04-13T05:05:35.606Z,1.76
2023-04-13T05:08:44.849Z,3.06
2023-04-13T05:11:51.477Z,3.60
2023-04-13T05:14:58.005Z,3.12
2023-04-13T05:18:06.367Z,2.50
2023-04-13T05:21:12.867Z,2.56
2023-04-13T05:24:21.050Z,3.32
2023-04-13T05:27:27.786Z,3.66
2023-04-13T05:30:35.479Z,4.05
2023-04-13T05:33:41.850Z,4.55
2023-04-13T05:36:48.060Z,4.35
2023-04-13T05:39:55.754Z,4.96
2023-04-13T05:43:02.111Z,4.85
2023-04-13T05:46:08.701Z,4.27
2023-04-13T05:49:14.984Z,4.28
2023-04-13T05:52:22.208Z,5.34
2023-04-13T05:55:30.050Z,6.21
2023-04-13T05:58:36.471Z,6.46
2023-04-13T06:01:42.604Z,5.82
2023-04-13T06:04:48.926Z,6.92
2023-04-13T06:07:56.146Z,6.61
2023-04-13T06:11:03.606Z,6.12
2023-04-13T06:14:10.135Z,7.39
2023-04-13T06:17:16.165Z,6.59
2023-04-13T06:20:22.867Z,7.08
2023-04-13T06:23:29.318Z,6.71
2023-04-13T06:26:37.661Z,7.15
2023-04-13T06:29:44.234Z,7.93
2023-04-13T06:32:50.518Z,8.10
2023-04-13T06:35:57.622Z,7.40
2023-04-13T06:39:04.648Z,7.53
2023-04-13T06:42:12.340Z,8.00
2023-04-13T06:45:18.923Z,8.51
2023-04-13T06:48:25.760Z,8.25
2023-04-13T06:51:32.246Z,8.28
2023-04-13T06:54:38.418Z,8.97
2023-04-13T06:57:46.565Z,9.26
2023-04-13T07:00:52.836Z,9.58
2023-04-13T07:03:59.075Z,9.81
2023-04-13T07:07:05.495Z,9.90
2023-04-13T07:10:11.990Z,10.50
2023-04-13T07:13:19.618Z,10.57
2023-04-13T07:16:25.854Z,10.23
2023-04-13T07:19:33.350Z,10.92
2023-04-13T07:22:39.630Z,11.34
2023-04-13T07:25:46.023Z,11.39
2023-04-13T07:28:53.489Z,10.98
2023-04-13T07:32:03.865Z,11.94
2023-04-13T07:35:10.642Z,11.61
2023-04-13T07:38:17.028Z,12.06
2023-04-13T07:41:24.406Z,12.45
2023-04-13T07:44:32.044Z,12.83
2023-04-13T07:47:38.616Z,12.37
2023-04-13T07:50:45.206Z,12.73
2023-04-13T07:53:53.802Z,12.51
2023-04-13T07:56:59.964Z,14.35
2023-04-13T08:00:10.664Z,14.00
2023-04-13T08:03:17.386Z,14.89
2023-04-13T08:06:23.902Z,14.24
2023-04-13T08:09:33.120Z,15.01
2023-04-13T08:12:39.558Z,15.43
2023-04-13T08:15:47.341Z,14.46
2023-04-13T08:18:53.418Z,13.98
2023-04-13T08:21:59.712Z,14.97
2023-04-13T08:25:07.364Z,15.43
2023-04-13T08:28:13.889Z,15.42
2023-04-13T08:31:21.934Z,15.56
2023-04-13T08:34:28.169Z,15.47
2023-04-13T08:37:35.120Z,16.49
2023-04-13T08:40:42.068Z,16.89
2023-04-13T08:43:48.629Z,16.67
2023-04-13T08:46:56.756Z,16.42
2023-04-13T08:50:04.122Z,16.92
2023-04-13T08:53:10.284Z,16.57
2023-04-13T08:56:17.749Z,17.35
2023-04-13T08:59:25.086Z,17.71
2023-04-13T09:02:44.234Z,17.34
2023-04-13T09:06:06.222Z,17.90
2023-04-13T09:09:15.063Z,16.87
2023-04-13T09:12:21.513Z,17.72
2023-04-13T09:15:28.252Z,17.69
2023-04-13T09:18:35.877Z,17.40
2023-04-13T09:21:43.347Z,18.27
2023-04-13T09:24:49.943Z,19.04
2023-04-13T09:27:57.413Z,18.90
2023-04-13T09:31:05.719Z,17.95
2023-04-13T09:34:13.664Z,17.79
2023-04-13T09:37:19.800Z,19.14
2023-04-13T09:40:26.845Z,18.62
2023-04-13T09:43:37.684Z,18.60
2023-04-13T09:46:44.725Z,17.99
2023-04-13T09:49:53.105Z,20.18
2023-04-13T09:53:03.050Z,19.68
2023-04-13T09:56:09.452Z,19.25
2023-04-13T09:59:16.106Z,19.03
2023-04-13T10:02:23.979Z,19.10
2023-04-13T10:05:41.428Z,18.94
2023-04-13T10:08:57.045Z,20.07
2023-04-13T10:12:04.497Z,20.53
2023-04-13T10:15:26.189Z,20.19
2023-04-13T10:18:42.603Z,19.59
2023-04-13T10:21:51.956Z,19.82
2023-04-13T10:24:57.974Z,19.10
2023-04-13T10:28:04.497Z,20.18
2023-04-13T10:31:11.792Z,21.58
2023-04-13T10:34:25.818Z,19.27
2023-04-13T10:37:33.796Z,21.50
2023-04-13T10:40:44.630Z,22.16
2023-04-13T10:44:02.161Z,22.02
2023-04-13T10:47:08.465Z,21.52
2023-04-13T10:50:19.154Z,21.45
2023-04-13T10:53:30.463Z,21.03
2023-04-13T10:56:36.981Z,21.94
2023-04-13T11:02:57.476Z,22.09
2023-04-13T11:06:03.792Z,21.50
2023-04-13T11:09:15.197Z,21.60
2023-04-13T11:12:23.230Z,22.41
2023-04-13T11:15:30.630Z,20.68
2023-04-13T11:18:37.089Z,20.14
2023-04-13T11:21:45.069Z,21.98
2023-04-13T11:24:52.982Z,22.77
2023-04-13T11:28:00.366Z,22.03
2023-04-13T11:31:07.636Z,22.34
2023-04-13T11:34:14.160Z,23.22
2023-04-13T11:37:20.770Z,23.13
2023-04-13T11:40:29.217Z,22.14
2023-04-13T11:43:35.490Z,20.68
2023-04-13T11:46:42.071Z,21.69
2023-04-13T11:49:48.708Z,21.70
2023-04-13T11:52:57.647Z,23.15
2023-04-13T11:56:05.743Z,22.72
2023-04-13T11:59:12.339Z,22.36
2023-04-13T12:05:34.706Z,24.10
2023-04-13T12:08:41.719Z,23.19
2023-04-13T12:12:11.982Z,22.95
2023-04-13T12:15:42.795Z,22.77
2023-04-13T12:18:52.358Z,22.27
2023-04-13T12:22:00.411Z,22.24
2023-04-13T12:25:17.159Z,22.32
2023-04-13T12:28:30.732Z,22.50
2023-04-13T12:31:40.215Z,22.70
2023-04-13T12:34:47.376Z,21.93
2023-04-13T12:37:53.733Z,23.62
2023-04-13T12:41:01.138Z,23.83
2023-04-13T12:44:10.518Z,23.71
2023-04-13T12:47:17.196Z,23.24
2023-04-13T12:50:23.739Z,23.35
2023-04-13T12:53:30.604Z,23.49
2023-04-13T12:56:36.995Z,23.32
2023-04-13T12:59:44.753Z,23.96
2023-04-13T13:02:59.482Z,23.62
2023-04-13T13:06:12.981Z,22.88
2023-04-13T13:09:19.183Z,22.24
2023-04-13T13:12:29.987Z,22.67
2023-04-13T13:15:37.872Z,24.04
2023-04-13T13:18:50.491Z,24.69
2023-04-13T13:22:07.086Z,23.80
2023-04-13T13:25:15.241Z,24.23
2023-04-13T13:28:21.603Z,24.38
2023-04-13T13:31:29.543Z,24.70
2023-04-13T13:34:36.024Z,24.94
2023-04-13T13:37:42.197Z,23.42
2023-04-13T13:40:49.157Z,23.62
2023-04-13T13:43:55.231Z,23.98
2023-04-13T13:47:02.649Z,24.23
2023-04-13T13:50:09.969Z,22.90
2023-04-13T13:53:16.381Z,23.50
2023-04-13T13:56:22.490Z,23.88
2023-04-13T13:59:28.677Z,23.75
2023-04-13T14:02:37.198Z,22.46
2023-04-13T14:05:44.425Z,24.29
2023-04-13T14:08:50.934Z,24.01
2023-04-13T14:11:57.992Z,24.51
2023-04-13T14:15:05.239Z,24.01
2023-04-13T14:18:13.282Z,24.18
2023-04-13T14:21:21.680Z,24.03
2023-04-13T14:24:28.495Z,23.69
2023-04-13T14:27:34.776Z,24.61
2023-04-13T14:30:41.264Z,23.89
2023-04-13T14:33:49.052Z,25.26
2023-04-13T14:36:55.786Z,26.59
2023-04-13T14:40:02.111Z,28.81
2023-04-13T14:43:09.081Z,25.48
2023-04-13T14:46:15.772Z,22.45
2023-04-13T14:49:23.618Z,23.16
2023-04-13T14:52:29.951Z,23.53
2023-04-13T14:55:36.437Z,23.65
2023-04-13T14:58:42.685Z,23.51
2023-04-13T15:01:50.253Z,23.20
2023-04-13T15:04:59.101Z,21.35
2023-04-13T15:08:07.362Z,21.27
2023-04-13T15:11:13.592Z,20.82
2023-04-13T15:14:19.770Z,20.42
2023-04-13T15:17:26.622Z,20.43
2023-04-13T15:20:34.536Z,20.43
2023-04-13T15:23:40.722Z,20.44
2023-04-13T15:26:46.897Z,19.84
2023-04-13T15:29:59.219Z,19.85
2023-04-13T15:33:05.895Z,19.57
2023-04-13T15:36:16.840Z,19.69
2023-04-13T15:39:23.189Z,19.94
2023-04-13T15:42:29.864Z,19.97
2023-04-13T15:45:36.614Z,20.22
2023-04-13T15:48:42.685Z,19.79
2023-04-13T15:51:52.914Z,19.57
2023-04-13T15:54:59.369Z,19.25
2023-04-13T15:58:06.379Z,19.06
2023-04-13T16:01:13.244Z,19.48
2023-04-13T16:04:19.948Z,19.40
2023-04-13T16:07:28.137Z,19.40
2023-04-13T16:10:34.770Z,18.92
2023-04-13T16:13:49.501Z,18.78
2023-04-13T16:17:00.226Z,18.84
2023-04-13T16:20:17.815Z,19.02
2023-04-13T16:23:25.710Z,18.65
2023-04-13T16:26:32.643Z,18.56
2023-04-13T16:29:41.578Z,18.43
2023-04-13T16:32:48.423Z,18.19
2023-04-13T16:35:54.672Z,17.86
2023-04-13T16:39:07.978Z,17.26
2023-04-13T16:42:16.939Z,16.89
2023-04-13T16:45:24.610Z,17.28
2023-04-13T16:48:30.810Z,16.71
2023-04-13T16:51:37.331Z,16.51
2023-04-13T16:54:46.453Z,16.26
2023-04-13T16:57:52.648Z,15.88
2023-04-13T17:00:59.083Z,16.00
2023-04-13T17:04:05.537Z,15.76
2023-04-13T17:07:12.300Z,15.62
2023-04-13T17:10:20.214Z,15.62
2023-04-13T17:13:26.846Z,15.54
2023-04-13T17:16:33.293Z,14.99
2023-04-13T17:19:39.581Z,14.94
2023-04-13T17:22:46.211Z,15.16
2023-04-13T17:25:56.698Z,14.77
2023-04-13T17:29:03.043Z,14.29
2023-04-13T17:32:09.716Z,14.20
2023-04-13T17:35:16.340Z,14.27
2023-04-13T17:38:22.871Z,14.51
2023-04-13T17:41:30.828Z,14.34
2023-04-13T17:44:38.059Z,14.02
2023-04-13T17:47:44.392Z,13.80
2023-04-13T17:50:51.749Z,13.73
2023-04-13T17:53:58.280Z,13.59
2023-04-13T17:57:07.542Z,13.45
2023-04-13T18:00:15.404Z,13.41
2023-04-13T18:03:21.737Z,13.37
2023-04-13T18:06:28.482Z,13.28
2023-04-13T18:09:34.926Z,12.93
2023-04-13T18:12:43.115Z,12.86
2023-04-13T18:15:50.515Z,12.74
2023-04-13T18:18:57.348Z,12.54
2023-04-13T18:22:03.797Z,13.08
2023-04-13T18:25:10.876Z,12.56
2023-04-13T18:28:18.806Z,12.19
2023-04-13T18:31:25.434Z,12.25
2023-04-13T18:34:32.202Z,12.76
2023-04-13T18:37:39.206Z,12.90
2023-04-13T18:40:46.009Z,12.82
2023-04-13T18:43:53.448Z,12.65
2023-04-13T18:47:00.039Z,12.34
2023-04-13T18:50:06.899Z,12.85
2023-04-13T18:53:13.465Z,12.82
2023-04-13T18:56:19.857Z,13.28
2023-04-13T18:59:28.310Z,12.97
2023-04-13T19:02:34.703Z,13.06
2023-04-13T19:05:41.302Z,12.75
2023-04-13T19:08:47.757Z,12.89
2023-04-13T19:12:01.276Z,12.96
2023-04-13T19:15:09.791Z,12.43
2023-04-13T19:18:16.168Z,12.39
2023-04-13T19:21:24.064Z,12.33
2023-04-13T19:24:30.419Z,12.33
2023-04-13T19:27:36.529Z,12.44
2023-04-13T19:30:44.101Z,12.72
2023-04-13T19:33:51.627Z,12.88
2023-04-13T19:36:58.134Z,12.71
2023-04-13T19:40:06.742Z,12.61
2023-04-13T19:43:13.116Z,12.56
2023-04-13T19:46:21.123Z,12.69
2023-04-13T19:49:27.608Z,12.71
2023-04-13T19:52:34.320Z,12.75
2023-04-13T19:55:41.218Z,13.00
2023-04-13T19:58:47.660Z,12.93
2023-04-13T20:01:55.412Z,12.76
2023-04-13T20:05:01.946Z,12.83
2023-04-13T20:08:08.380Z,12.63
2023-04-13T20:11:14.758Z,12.63
2023-04-13T20:14:21.259Z,12.66
2023-04-13T20:17:29.355Z,12.56
2023-04-13T20:20:38.608Z,12.17
2023-04-13T20:23:44.885Z,12.28
2023-04-13T20:26:51.655Z,12.41
2023-04-13T20:29:57.766Z,12.49
2023-04-13T20:33:07.066Z,12.19
2023-04-13T20:36:13.948Z,12.21
2023-04-13T20:39:25.505Z,12.40
2023-04-13T20:42:31.948Z,12.53
2023-04-13T20:45:38.400Z,12.25
2023-04-13T20:48:51.454Z,11.96
2023-04-13T20:52:02.176Z,11.81
2023-04-13T20:55:09.941Z,11.75
2023-04-13T20:58:17.268Z,11.73
2023-04-13T21:01:25.408Z,11.70
2023-04-13T21:04:33.456Z,11.86
2023-04-13T21:07:40.427Z,11.74
2023-04-13T21:10:47.033Z,12.06
2023-04-13T21:13:53.433Z,11.98
2023-04-13T21:16:59.626Z,11.76
2023-04-13T21:20:10.244Z,11.76
2023-04-13T21:23:16.437Z,11.95
2023-04-13T21:26:22.979Z,12.08
2023-04-13T21:29:29.072Z,12.02
2023-04-13T21:32:35.301Z,11.86
2023-04-13T21:35:43.051Z,11.94
2023-04-13T21:38:49.722Z,11.79
2023-04-13T21:41:56.073Z,11.94
2023-04-13T21:45:02.211Z,11.84
2023-04-13T21:48:08.870Z,11.42
2023-04-13T21:51:16.521Z,11.23
2023-04-13T21:54:22.927Z,11.19
2023-04-13T21:57:29.140Z,10.82
2023-04-13T22:00:35.405Z,10.61
2023-04-13T22:03:48.705Z,10.79
2023-04-13T22:06:57.126Z,10.77
2023-04-13T22:10:03.410Z,10.31
2023-04-13T22:13:09.612Z,10.56
2023-04-13T22:16:16.516Z,10.45
2023-04-13T22:19:22.735Z,10.36
2023-04-13T22:22:30.789Z,10.27
2023-04-13T22:25:37.026Z,10.06
2023-04-13T22:28:43.112Z,9.90
2023-04-13T22:31:49.747Z,10.01
2023-04-13T22:34:56.233Z,9.88
2023-04-13T22:38:04.887Z,10.14
2023-04-13T22:41:11.272Z,9.94
2023-04-13T22:44:17.666Z,9.73
2023-04-13T22:47:24.175Z,9.45
2023-04-13T22:50:30.611Z,9.60
2023-04-13T22:53:38.193Z,9.11
2023-04-13T22:56:44.532Z,9.44
2023-04-13T22:59:50.574Z,9.61
2023-04-13T23:02:57.287Z,9.80
2023-04-13T23:06:05.864Z,9.60
2023-04-13T23:09:13.404Z,9.35
2023-04-13T23:12:19.598Z,9.74
2023-04-13T23:15:26.234Z,9.54
2023-04-13T23:18:32.329Z,9.52
2023-04-13T23:21:38.459Z,9.45
2023-04-13T23:24:45.951Z,9.41
2023-04-13T23:27:52.299Z,9.35
2023-04-13T23:31:04.352Z,9.39
2023-04-13T23:34:10.933Z,9.34
2023-04-13T23:37:17.203Z,9.26
2023-04-13T23:40:24.821Z,8.90
2023-04-13T23:43:31.375Z,9.12
2023-04-13T23:46:38.757Z,9.08
2023-04-13T23:49:46.916Z,8.98
2023-04-13T23:52:54.676Z,8.83
2023-04-13T23:56:02.540Z,8.97
2023-04-13T23:59:08.868Z,8.86
